Time;durP1;ratioP1;P1;durP2;ratioP2;P2;SDS_P1;SDS_P2;PMS_P1;PMS_P2;Temp;Humidity;BMP_temperature;BMP_pressure;BME280_temperature;BME280_humidity;BME280_pressure;Samples;Min_cycle;Max_cycle;Signal;HPM_P1;HPM_P2
2024/01/16 00:01:59;;;;;;;6.20;2.20;;;;;;;-128.00;-1.00;-1.00;99970;1284;1059771;-33
2024/01/16 00:04:26;;;;;;;4.80;1.90;;;;;;;-128.00;-1.00;-1.00;99980;1283;1004643;-33
2024/01/16 00:06:52;;;;;;;4.80;1.90;;;;;;;-128.00;-1.00;-1.00;100004;1284;1046683;-31
2024/01/16 00:09:18;;;;;;;3.20;1.70;;;;;;;-128.00;-1.00;-1.00;100081;1285;1005026;-32
2024/01/16 00:11:44;;;;;;;5.30;1.70;;;;;;;-128.00;-1.00;-1.00;100022;1284;1004308;-32
2024/01/16 00:14:09;;;;;;;6.70;2.20;;;;;;;-128.00;-1.00;-1.00;100005;1285;1014712;-32
2024/01/16 00:16:43;;;;;;;4.70;1.60;;;;;;;-128.00;-1.00;-1.00;99993;1284;1004786;-30
2024/01/16 00:19:09;;;;;;;4.90;2.10;;;;;;;-128.00;-1.00;-1.00;99995;1285;1047842;-32
2024/01/16 00:21:41;;;;;;;5.30;2.50;;;;;;;-128.00;-1.00;-1.00;99767;1285;1004504;-32
2024/01/16 00:24:07;;;;;;;4.40;2.00;;;;;;;-128.00;-1.00;-1.00;100029;1285;1057150;-30
2024/01/16 00:26:33;;;;;;;5.70;2.20;;;;;;;-128.00;-1.00;-1.00;99916;1285;1005415;-30
2024/01/16 00:28:58;;;;;;;8.40;2.90;;;;;;;-128.00;-1.00;-1.00;100013;1285;1005415;-31
2024/01/16 00:31:24;;;;;;;7.80;2.60;;;;;;;-128.00;-1.00;-1.00;100027;1287;1004627;-33
2024/01/16 00:33:49;;;;;;;5.30;2.70;;;;;;;-128.00;-1.00;-1.00;99943;1287;1004718;-30
2024/01/16 00:36:15;;;;;;;7.20;2.80;;;;;;;-128.00;-1.00;-1.00;99859;1285;1060399;-34
2024/01/16 00:38:41;;;;;;;7.50;3.40;;;;;;;-128.00;-1.00;-1.00;99986;1283;1004745;-33
2024/01/16 00:41:06;;;;;;;7.10;3.90;;;;;;;-128.00;-1.00;-1.00;100233;1287;1003604;-34
2024/01/16 00:43:32;;;;;;;6.90;3.10;;;;;;;-128.00;-1.00;-1.00;100098;1285;1060870;-32
2024/01/16 00:45:58;;;;;;;6.20;2.50;;;;;;;-128.00;-1.00;-1.00;100208;1285;1003472;-29
2024/01/16 00:48:24;;;;;;;8.30;2.80;;;;;;;-128.00;-1.00;-1.00;100150;1285;1003633;-30
2024/01/16 00:50:50;;;;;;;5.80;2.80;;;;;;;-128.00;-1.00;-1.00;100178;1287;1003244;-32
2024/01/16 00:53:16;;;;;;;14.70;4.80;;;;;;;-128.00;-1.00;-1.00;99411;1285;1046186;-31
2024/01/16 00:55:42;;;;;;;15.00;6.20;;;;;;;-128.00;-1.00;-1.00;100138;1285;1005083;-33
2024/01/16 00:58:07;;;;;;;46.80;16.50;;;;;;;-128.00;-1.00;-1.00;100121;1284;1003496;-34
2024/01/16 01:00:34;;;;;;;35.60;12.60;;;;;;;-128.00;-1.00;-1.00;100036;1284;1005115;-34
2024/01/16 01:03:01;;;;;;;76.80;27.30;;;;;;;-128.00;-1.00;-1.00;99971;1287;1046513;-32
2024/01/16 01:05:28;;;;;;;84.70;27.40;;;;;;;-128.00;-1.00;-1.00;100106;1285;1004135;-32
2024/01/16 01:07:55;;;;;;;87.80;28.80;;;;;;;-128.00;-1.00;-1.00;100048;1285;1004543;-34
2024/01/16 01:10:20;;;;;;;19.50;8.90;;;;;;;-128.00;-1.00;-1.00;100098;1285;1004364;-31
2024/01/16 01:12:46;;;;;;;13.30;4.80;;;;;;;-128.00;-1.00;-1.00;100097;1283;1002532;-31
2024/01/16 01:15:13;;;;;;;5.70;2.60;;;;;;;-128.00;-1.00;-1.00;100152;1285;1003745;-33
2024/01/16 01:17:40;;;;;;;5.30;2.50;;;;;;;-128.00;-1.00;-1.00;100159;1285;1045789;-33
2024/01/16 01:20:07;;;;;;;7.40;2.70;;;;;;;-128.00;-1.00;-1.00;100077;1283;1003984;-30
2024/01/16 01:22:33;;;;;;;7.10;2.30;;;;;;;-128.00;-1.00;-1.00;100201;1284;1004315;-33
2024/01/16 01:24:58;;;;;;;5.10;2.20;;;;;;;-128.00;-1.00;-1.00;100091;1285;1003248;-35
2024/01/16 01:27:24;;;;;;;4.80;1.90;;;;;;;-128.00;-1.00;-1.00;100119;1284;1002725;-34
2024/01/16 01:29:49;;;;;;;5.80;2.30;;;;;;;-128.00;-1.00;-1.00;66280;1287;1022239;-30
2024/01/16 01:32:15;;;;;;;8.40;2.80;;;;;;;-128.00;-1.00;-1.00;100131;1284;1004253;-35
2024/01/16 01:34:44;;;;;;;7.90;1.90;;;;;;;-128.00;-1.00;-1.00;100162;1284;1002855;-31
2024/01/16 01:37:11;;;;;;;6.50;1.50;;;;;;;-128.00;-1.00;-1.00;100248;1287;1003541;-30
2024/01/16 01:39:36;;;;;;;8.90;2.10;;;;;;;-128.00;-1.00;-1.00;100205;1285;1004659;-34
2024/01/16 01:42:02;;;;;;;4.90;2.30;;;;;;;-128.00;-1.00;-1.00;100139;1285;1003489;-32
2024/01/16 01:44:27;;;;;;;4.10;1.00;;;;;;;-128.00;-1.00;-1.00;100155;1287;1003155;-33
2024/01/16 01:46:54;;;;;;;5.40;1.30;;;;;;;-128.00;-1.00;-1.00;100210;1283;1038819;-30
2024/01/16 01:49:20;;;;;;;6.60;1.20;;;;;;;-128.00;-1.00;-1.00;100153;1284;1004106;-32
2024/01/16 01:51:45;;;;;;;4.40;0.90;;;;;;;-128.00;-1.00;-1.00;100147;1285;1002895;-33
2024/01/16 02:35:23;;;;;;;3.70;1.20;;;;;;;-3.13;100.00;97854.38;103369;1285;613325;-30
2024/01/16 02:37:48;;;;;;;5.00;1.60;;;;;;;-2.96;100.00;97866.05;103518;1283;140239;-33
2024/01/16 02:40:14;;;;;;;3.90;0.80;;;;;;;-2.95;100.00;97870.86;103742;1283;59371;-33
2024/01/16 02:42:40;;;;;;;8.00;1.30;;;;;;;-2.93;100.00;97869.23;103682;1286;59361;-33
2024/01/16 02:45:06;;;;;;;6.60;1.40;;;;;;;-2.88;100.00;97872.80;103747;1283;59412;-32
2024/01/16 02:47:33;;;;;;;8.20;2.00;;;;;;;-2.89;100.00;97878.80;103672;1286;59379;-30
2024/01/16 02:49:58;;;;;;;6.50;1.80;;;;;;;-2.89;100.00;97885.07;103683;1287;59355;-34
2024/01/16 02:52:24;;;;;;;;;;;;;;;-2.83;100.00;97885.65;103734;1286;59599;-33
2024/01/16 02:54:50;;;;;;;3.70;0.90;;;;;;;-2.78;100.00;97887.38;103675;1282;59310;-33
2024/01/16 02:57:15;;;;;;;7.00;0.50;;;;;;;-2.83;100.00;97888.98;103766;1282;59390;-32
2024/01/16 02:59:44;;;;;;;2.90;0.90;;;;;;;-2.79;100.00;97891.88;103671;1283;59782;-30
2024/01/16 03:02:11;;;;;;;2.90;0.80;;;;;;;-2.85;100.00;97899.27;103623;1287;72285;-31
2024/01/16 03:04:37;;;;;;;2.10;0.50;;;;;;;-2.88;100.00;97903.08;103722;1282;59660;-30
2024/01/16 03:07:03;;;;;;;3.60;1.10;;;;;;;-2.84;100.00;97907.16;103622;1286;59685;-31
2024/01/16 03:09:29;;;;;;;4.30;1.00;;;;;;;-2.84;100.00;97906.51;103626;1285;59529;-31
2024/01/16 03:11:56;;;;;;;3.80;1.30;;;;;;;-2.77;100.00;97905.83;103758;1285;59781;-37
2024/01/16 03:14:22;;;;;;;3.70;0.90;;;;;;;-2.83;100.00;97910.10;103672;1285;59810;-34
2024/01/16 03:16:47;;;;;;;2.40;0.90;;;;;;;-2.89;100.00;97907.20;103445;1288;59640;-43
2024/01/16 03:19:13;;;;;;;4.70;1.10;;;;;;;-2.89;100.00;97913.64;103485;1283;59705;-32
2024/01/16 03:21:39;;;;;;;5.00;1.10;;;;;;;-2.84;100.00;97904.27;103658;1283;60173;-32
2024/01/16 03:24:06;;;;;;;2.60;1.00;;;;;;;-2.90;100.00;97897.24;103634;1283;59762;-34
2024/01/16 03:26:32;;;;;;;7.50;1.10;;;;;;;-2.90;100.00;97899.64;103665;1283;59659;-34
2024/01/16 03:28:58;;;;;;;2.70;0.70;;;;;;;-27.92;79.80;78321.03;103038;1286;1002228;-31
2024/01/16 03:31:24;;;;;;;;;;;;;;;-128.00;-1.00;-1.00;100046;1283;1004290;-32
2024/01/16 03:33:50;;;;;;;1.50;0.80;;;;;;;-128.00;-1.00;-1.00;100122;1284;1004906;-33
2024/01/16 03:36:16;;;;;;;5.50;0.90;;;;;;;-128.00;-1.00;-1.00;100181;1283;1004912;-30
2024/01/16 03:38:42;;;;;;;4.20;0.90;;;;;;;-128.00;-1.00;-1.00;100024;1282;1059801;-32
2024/01/16 03:41:08;;;;;;;5.00;0.90;;;;;;;-128.00;-1.00;-1.00;99979;1283;1005011;-30
2024/01/16 03:43:34;;;;;;;2.90;0.70;;;;;;;-128.00;-1.00;-1.00;99906;1289;1004312;-30
2024/01/16 03:46:00;;;;;;;4.10;1.50;;;;;;;-128.00;-1.00;-1.00;100181;1287;1003647;-32
2024/01/16 03:48:26;;;;;;;9.20;2.50;;;;;;;-128.00;-1.00;-1.00;100196;1283;1004954;-30
2024/01/16 03:50:51;;;;;;;2.20;1.20;;;;;;;-128.00;-1.00;-1.00;100069;1286;1004504;-33
2024/01/16 03:53:17;;;;;;;4.00;1.10;;;;;;;-128.00;-1.00;-1.00;100093;1282;1004403;-32
2024/01/16 03:55:43;;;;;;;1.80;0.80;;;;;;;-128.00;-1.00;-1.00;99896;1288;1014582;-33
2024/01/16 03:58:09;;;;;;;2.40;1.00;;;;;;;-128.00;-1.00;-1.00;100192;1282;1004470;-31
2024/01/16 04:00:34;;;;;;;5.60;1.20;;;;;;;-128.00;-1.00;-1.00;100185;1283;1004159;-31
2024/01/16 04:03:00;;;;;;;4.90;1.00;;;;;;;-128.00;-1.00;-1.00;100136;1286;1004179;-33
2024/01/16 04:05:25;;;;;;;2.20;0.70;;;;;;;-128.00;-1.00;-1.00;100089;1282;1004509;-32
2024/01/16 04:07:52;;;;;;;;;;;;;;;-128.00;-1.00;-1.00;100166;1288;1004122;-30
2024/01/16 04:10:18;;;;;;;4.30;1.10;;;;;;;-128.00;-1.00;-1.00;100066;1288;1047549;-32
2024/01/16 04:12:44;;;;;;;6.30;1.30;;;;;;;-128.00;-1.00;-1.00;100119;1283;1004783;-30
2024/01/16 04:15:09;;;;;;;2.60;1.10;;;;;;;-128.00;-1.00;-1.00;100105;1283;1005098;-32
2024/01/16 04:17:35;;;;;;;3.00;1.30;;;;;;;-128.00;-1.00;-1.00;100025;1286;1004494;-31
2024/01/16 04:20:00;;;;;;;3.10;1.30;;;;;;;-128.00;-1.00;-1.00;99989;1288;1004017;-32
2024/01/16 04:22:26;;;;;;;8.30;1.60;;;;;;;-128.00;-1.00;-1.00;99958;1283;1060411;-32
2024/01/16 04:24:52;;;;;;;3.70;1.20;;;;;;;-128.00;-1.00;-1.00;100033;1287;1004516;-29
2024/01/16 04:27:18;;;;;;;6.00;1.90;;;;;;;-128.00;-1.00;-1.00;100138;1286;1014107;-31
2024/01/16 04:29:43;;;;;;;4.60;1.20;;;;;;;-128.00;-1.00;-1.00;100137;1286;1004928;-32
2024/01/16 04:32:09;;;;;;;7.50;2.40;;;;;;;-128.00;-1.00;-1.00;100090;1286;1004464;-31
2024/01/16 04:34:34;;;;;;;12.60;2.50;;;;;;;-128.00;-1.00;-1.00;100046;1283;1004135;-31
2024/01/16 04:37:00;;;;;;;5.30;1.90;;;;;;;-128.00;-1.00;-1.00;100127;1283;1004834;-34
2024/01/16 04:39:25;;;;;;;5.90;1.70;;;;;;;-128.00;-1.00;-1.00;100044;1287;1004438;-38
2024/01/16 04:41:51;;;;;;;3.70;1.50;;;;;;;-128.00;-1.00;-1.00;99955;1282;1004618;-34
2024/01/16 04:44:17;;;;;;;4.90;1.40;;;;;;;-128.00;-1.00;-1.00;100116;1283;1056760;-33
2024/01/16 04:46:42;;;;;;;2.90;1.20;;;;;;;-128.00;-1.00;-1.00;100085;1283;1004320;-30
2024/01/16 04:49:08;;;;;;;7.70;2.00;;;;;;;-128.00;-1.00;-1.00;100076;1286;1044815;-33
2024/01/16 04:51:34;;;;;;;1.90;1.00;;;;;;;-128.00;-1.00;-1.00;100129;1288;1005486;-30
2024/01/16 04:53:59;;;;;;;3.30;1.30;;;;;;;-128.00;-1.00;-1.00;100090;1282;1004530;-30
2024/01/16 04:56:25;;;;;;;2.00;0.90;;;;;;;-128.00;-1.00;-1.00;100024;1283;1058501;-32
2024/01/16 04:58:52;;;;;;;3.80;1.30;;;;;;;-128.00;-1.00;-1.00;100154;1283;1004887;-33
2024/01/16 05:01:17;;;;;;;2.50;0.50;;;;;;;-128.00;-1.00;-1.00;100170;1283;1046800;-30
2024/01/16 05:03:43;;;;;;;5.00;1.00;;;;;;;-128.00;-1.00;-1.00;100130;1287;1005116;-34
2024/01/16 05:06:13;;;;;;;6.30;0.80;;;;;;;-128.00;-1.00;-1.00;99932;1283;1004299;-31
2024/01/16 05:08:39;;;;;;;3.30;0.90;;;;;;;-128.00;-1.00;-1.00;100201;1283;1014596;-31
2024/01/16 05:11:05;;;;;;;2.10;1.00;;;;;;;-128.00;-1.00;-1.00;100059;1283;1004555;-33
2024/01/16 05:13:31;;;;;;;3.20;1.10;;;;;;;-128.00;-1.00;-1.00;100109;1283;1005331;-31
2024/01/16 05:15:56;;;;;;;4.70;1.70;;;;;;;-128.00;-1.00;-1.00;99986;1283;1004668;-32
2024/01/16 05:18:22;;;;;;;1.90;0.60;;;;;;;-128.00;-1.00;-1.00;100119;1282;1004076;-33
2024/01/16 05:20:47;;;;;;;0.90;0.50;;;;;;;-128.00;-1.00;-1.00;100051;1282;1004519;-33
2024/01/16 05:23:15;;;;;;;4.40;0.70;;;;;;;-128.00;-1.00;-1.00;100041;1283;1047145;-30
2024/01/16 05:25:41;;;;;;;2.80;1.30;;;;;;;-128.00;-1.00;-1.00;100079;1282;1003619;-32
2024/01/16 05:28:06;;;;;;;2.60;0.70;;;;;;;-128.00;-1.00;-1.00;100100;1282;1004676;-33
2024/01/16 05:30:33;;;;;;;2.00;0.80;;;;;;;-128.00;-1.00;-1.00;99893;1288;1004864;-32
2024/01/16 05:33:00;;;;;;;2.30;0.70;;;;;;;-128.00;-1.00;-1.00;100030;1288;1045544;-32
2024/01/16 05:35:27;;;;;;;2.80;0.90;;;;;;;-128.00;-1.00;-1.00;100077;1282;1003979;-31
2024/01/16 05:37:55;;;;;;;2.20;1.00;;;;;;;-128.00;-1.00;-1.00;100075;1283;1004697;-32
2024/01/16 05:40:21;;;;;;;5.70;1.30;;;;;;;-128.00;-1.00;-1.00;100033;1282;1004144;-31
2024/01/16 05:42:48;;;;;;;1.30;1.00;;;;;;;-128.00;-1.00;-1.00;100100;1286;1003675;-30
2024/01/16 05:45:13;;;;;;;2.70;1.30;;;;;;;-128.00;-1.00;-1.00;100067;1282;1004551;-30
2024/01/16 05:47:39;;;;;;;8.20;1.90;;;;;;;-128.00;-1.00;-1.00;100110;1284;1003968;-30
2024/01/16 05:50:05;;;;;;;4.70;1.40;;;;;;;-128.00;-1.00;-1.00;100084;1282;1004727;-33
2024/01/16 05:52:31;;;;;;;6.00;2.50;;;;;;;-128.00;-1.00;-1.00;100083;1283;1004467;-33
2024/01/16 05:54:58;;;;;;;4.50;2.40;;;;;;;-128.00;-1.00;-1.00;100081;1283;1004492;-31
2024/01/16 05:57:24;;;;;;;4.10;2.40;;;;;;;-128.00;-1.00;-1.00;100061;1286;1004043;-32
2024/01/16 05:59:49;;;;;;;;;;;;;;;-128.00;-1.00;-1.00;100127;1286;1004798;-29
2024/01/16 06:02:15;;;;;;;5.50;1.60;;;;;;;-128.00;-1.00;-1.00;100084;1283;1004457;-29
2024/01/16 06:04:40;;;;;;;7.10;2.30;;;;;;;-128.00;-1.00;-1.00;100099;1283;1004757;-30
2024/01/16 06:07:07;;;;;;;8.70;1.70;;;;;;;-128.00;-1.00;-1.00;100030;1283;1004381;-30
2024/01/16 06:09:33;;;;;;;5.50;2.00;;;;;;;-128.00;-1.00;-1.00;100050;1283;1044640;-31
2024/01/16 06:11:59;;;;;;;8.30;2.30;;;;;;;-128.00;-1.00;-1.00;100075;1282;1004610;-35
2024/01/16 06:14:24;;;;;;;7.40;2.00;;;;;;;-128.00;-1.00;-1.00;100127;1282;1004113;-30
2024/01/16 06:16:50;;;;;;;8.90;2.60;;;;;;;-128.00;-1.00;-1.00;100072;1286;1004206;-30
2024/01/16 06:19:16;;;;;;;4.00;2.10;;;;;;;-128.00;-1.00;-1.00;100053;1282;1003702;-30
2024/01/16 06:21:42;;;;;;;4.70;2.50;;;;;;;-128.00;-1.00;-1.00;99862;1283;1004122;-32
2024/01/16 06:24:08;;;;;;;5.60;2.90;;;;;;;-128.00;-1.00;-1.00;100140;1282;1004440;-34
2024/01/16 06:26:33;;;;;;;10.60;2.90;;;;;;;-128.00;-1.00;-1.00;100102;1282;1056631;-33
2024/01/16 06:28:59;;;;;;;7.40;3.30;;;;;;;-128.00;-1.00;-1.00;99997;1283;1005010;-33
2024/01/16 06:31:26;;;;;;;5.30;2.40;;;;;;;-128.00;-1.00;-1.00;100064;1282;1005806;-32
2024/01/16 06:33:52;;;;;;;4.00;2.00;;;;;;;-128.00;-1.00;-1.00;100114;1282;1046668;-33
2024/01/16 06:36:17;;;;;;;;;;;;;;;-128.00;-1.00;-1.00;100154;1282;1004300;-32
2024/01/16 06:38:43;;;;;;;7.80;2.60;;;;;;;-128.00;-1.00;-1.00;100053;1283;1004955;-30
2024/01/16 06:41:08;;;;;;;8.00;2.60;;;;;;;-128.00;-1.00;-1.00;100040;1283;1003941;-30
2024/01/16 06:43:34;;;;;;;4.90;2.10;;;;;;;-128.00;-1.00;-1.00;100002;1283;1004983;-34
2024/01/16 06:46:00;;;;;;;6.30;1.80;;;;;;;-128.00;-1.00;-1.00;100074;1282;1004437;-31
2024/01/16 06:48:26;;;;;;;5.00;2.00;;;;;;;-128.00;-1.00;-1.00;100021;1283;1056541;-33
2024/01/16 06:50:51;;;;;;;5.30;2.30;;;;;;;-128.00;-1.00;-1.00;100035;1288;1004578;-34
2024/01/16 06:53:17;;;;;;;5.40;2.60;;;;;;;-128.00;-1.00;-1.00;100049;1282;1003710;-34
2024/01/16 06:55:42;;;;;;;7.80;3.90;;;;;;;-128.00;-1.00;-1.00;100096;1283;1004630;-32
2024/01/16 06:58:09;;;;;;;5.50;3.10;;;;;;;-128.00;-1.00;-1.00;100279;1282;1004616;-32
2024/01/16 07:00:36;;;;;;;6.60;2.90;;;;;;;-128.00;-1.00;-1.00;100176;1282;1060859;-34
2024/01/16 07:03:02;;;;;;;8.10;2.60;;;;;;;-128.00;-1.00;-1.00;100235;1283;1003667;-32
2024/01/16 07:05:29;;;;;;;5.80;2.80;;;;;;;-128.00;-1.00;-1.00;100266;1283;1002868;-33
2024/01/16 07:07:55;;;;;;;5.70;2.90;;;;;;;-128.00;-1.00;-1.00;100255;1282;1003049;-32
2024/01/16 07:10:22;;;;;;;5.70;2.80;;;;;;;-128.00;-1.00;-1.00;100199;1283;1004782;-31
2024/01/16 07:12:49;;;;;;;6.60;3.20;;;;;;;-128.00;-1.00;-1.00;100269;1282;1004301;-33
2024/01/16 07:15:15;;;;;;;7.00;3.20;;;;;;;-128.00;-1.00;-1.00;100280;1283;1003621;-33
2024/01/16 07:17:40;;;;;;;;;;;;;;;-128.00;-1.00;-1.00;100356;1283;1003697;-34
2024/01/16 07:20:07;;;;;;;4.70;1.80;;;;;;;-128.00;-1.00;-1.00;100277;1282;1003672;-32
2024/01/16 07:22:34;;;;;;;7.30;2.20;;;;;;;-128.00;-1.00;-1.00;100374;1282;1059654;-34
2024/01/16 07:25:00;;;;;;;5.60;3.60;;;;;;;-128.00;-1.00;-1.00;100345;1282;1003696;-31
2024/01/16 07:27:26;;;;;;;5.20;2.80;;;;;;;-128.00;-1.00;-1.00;100245;1287;1003750;-31
2024/01/16 07:29:51;;;;;;;7.40;2.90;;;;;;;-128.00;-1.00;-1.00;100128;1283;1004545;-31
2024/01/16 07:32:17;;;;;;;6.60;2.70;;;;;;;-128.00;-1.00;-1.00;100132;1282;1048545;-33
2024/01/16 07:34:43;;;;;;;9.60;3.20;;;;;;;-128.00;-1.00;-1.00;100291;1283;1003370;-33
2024/01/16 07:37:09;;;;;;;8.30;3.60;;;;;;;-128.00;-1.00;-1.00;100245;1286;1004414;-33
2024/01/16 07:39:34;;;;;;;;;;;;;;;-128.00;-1.00;-1.00;100120;1283;1012224;-33
2024/01/16 07:42:00;;;;;;;11.60;5.50;;;;;;;-128.00;-1.00;-1.00;100109;1288;1003255;-30
2024/01/16 07:44:26;;;;;;;10.70;4.90;;;;;;;-128.00;-1.00;-1.00;100176;1283;1003316;-30
2024/01/16 07:46:52;;;;;;;;;;;;;;;-128.00;-1.00;-1.00;100274;1283;1055165;-32
2024/01/16 07:49:18;;;;;;;51.10;22.00;;;;;;;-128.00;-1.00;-1.00;100337;1286;1004961;-30
2024/01/16 07:51:44;;;;;;;23.30;10.30;;;;;;;-128.00;-1.00;-1.00;100121;1283;1002966;-30
2024/01/16 07:54:09;;;;;;;16.60;6.60;;;;;;;-128.00;-1.00;-1.00;100236;1283;1003234;-33
2024/01/16 07:56:35;;;;;;;14.30;5.50;;;;;;;-128.00;-1.00;-1.00;100294;1283;1058476;-30
2024/01/16 07:59:01;;;;;;;;;;;;;;;-128.00;-1.00;-1.00;100316;1282;1003325;-30
2024/01/16 08:01:28;;;;;;;26.30;7.20;;;;;;;-128.00;-1.00;-1.00;100365;1282;1003816;-33
2024/01/16 08:03:55;;;;;;;13.60;5.70;;;;;;;-128.00;-1.00;-1.00;100287;1283;1037937;-32
2024/01/16 08:06:21;;;;;;;12.60;4.50;;;;;;;-128.00;-1.00;-1.00;100306;1282;1002750;-32
2024/01/16 08:08:48;;;;;;;7.00;3.20;;;;;;;-128.00;-1.00;-1.00;100308;1282;1002727;-31
2024/01/16 08:11:14;;;;;;;8.30;3.20;;;;;;;-128.00;-1.00;-1.00;100272;1282;1003573;-30
2024/01/16 08:13:40;;;;;;;7.40;3.10;;;;;;;-128.00;-1.00;-1.00;100189;1287;1003019;-30
2024/01/16 08:16:06;;;;;;;6.80;2.80;;;;;;;-128.00;-1.00;-1.00;100354;1283;1002811;-33
2024/01/16 08:18:31;;;;;;;4.60;2.80;;;;;;;-128.00;-1.00;-1.00;100345;1283;1003567;-31
2024/01/16 08:20:57;;;;;;;9.00;2.70;;;;;;;-128.00;-1.00;-1.00;100252;1282;1058942;-33
2024/01/16 08:23:23;;;;;;;7.60;4.60;;;;;;;-128.00;-1.00;-1.00;100296;1282;1004018;-32
2024/01/16 08:25:49;;;;;;;9.80;4.40;;;;;;;-128.00;-1.00;-1.00;100258;1282;1003612;-31
2024/01/16 08:28:14;;;;;;;7.50;3.90;;;;;;;-128.00;-1.00;-1.00;100264;1288;1038656;-32
2024/01/16 08:30:40;;;;;;;10.40;3.80;;;;;;;-128.00;-1.00;-1.00;100308;1282;1002296;-30
2024/01/16 08:33:07;;;;;;;6.50;3.20;;;;;;;-128.00;-1.00;-1.00;100326;1283;1002795;-32
2024/01/16 08:35:33;;;;;;;12.30;3.80;;;;;;;-128.00;-1.00;-1.00;100182;1283;1056714;-31
2024/01/16 08:37:59;;;;;;;16.60;7.70;;;;;;;-128.00;-1.00;-1.00;100057;1283;1003532;-31
2024/01/16 08:40:25;;;;;;;18.10;5.70;;;;;;;-128.00;-1.00;-1.00;99788;1282;1003223;-33
2024/01/16 08:42:54;;;;;;;;;;;;;;;-128.00;-1.00;-1.00;100262;1282;1005156;-31
2024/01/16 08:45:23;;;;;;;4.90;2.70;;;;;;;-128.00;-1.00;-1.00;100181;1282;1061174;-31
2024/01/16 08:47:49;;;;;;;7.30;2.60;;;;;;;-128.00;-1.00;-1.00;100152;1283;1055336;-32
2024/01/16 08:50:15;;;;;;;9.40;3.40;;;;;;;-128.00;-1.00;-1.00;100174;1282;1004439;-31
2024/01/16 08:52:41;;;;;;;10.00;4.10;;;;;;;-128.00;-1.00;-1.00;100310;1282;1004509;-32
2024/01/16 08:55:08;;;;;;;;;;;;;;;-128.00;-1.00;-1.00;100257;1282;1004493;-33
2024/01/16 08:57:34;;;;;;;9.70;3.40;;;;;;;-128.00;-1.00;-1.00;100288;1282;1003339;-36
2024/01/16 09:00:00;;;;;;;7.80;4.10;;;;;;;-128.00;-1.00;-1.00;100082;1282;1003496;-33
2024/01/16 09:02:28;;;;;;;33.80;10.30;;;;;;;-128.00;-1.00;-1.00;100137;1283;1003593;-34
2024/01/16 09:04:55;;;;;;;29.00;8.60;;;;;;;-128.00;-1.00;-1.00;100199;1282;1012526;-32
2024/01/16 09:07:22;;;;;;;26.20;8.70;;;;;;;-128.00;-1.00;-1.00;100331;1286;1004524;-34
2024/01/16 09:09:48;;;;;;;13.20;5.30;;;;;;;-128.00;-1.00;-1.00;100301;1283;1005563;-32
2024/01/16 09:12:15;;;;;;;28.30;8.80;;;;;;;-128.00;-1.00;-1.00;100217;1282;1003383;-31
2024/01/16 09:14:41;;;;;;;20.10;6.80;;;;;;;-128.00;-1.00;-1.00;100270;1282;1002994;-33
2024/01/16 09:17:07;;;;;;;28.90;12.50;;;;;;;-128.00;-1.00;-1.00;100257;1286;1003011;-33
2024/01/16 09:19:32;;;;;;;41.60;18.30;;;;;;;-128.00;-1.00;-1.00;100154;1283;1003024;-34
2024/01/16 09:21:58;;;;;;;31.40;13.40;;;;;;;-128.00;-1.00;-1.00;100222;1283;1045790;-32
2024/01/16 09:24:24;;;;;;;18.60;6.70;;;;;;;-128.00;-1.00;-1.00;100268;1283;1003188;-32
2024/01/16 09:26:49;;;;;;;16.20;6.60;;;;;;;-128.00;-1.00;-1.00;100220;1282;1003282;-30
2024/01/16 09:29:16;;;;;;;8.30;3.50;;;;;;;-128.00;-1.00;-1.00;100117;1283;1003735;-32
2024/01/16 09:31:42;;;;;;;17.40;7.10;;;;;;;-128.00;-1.00;-1.00;100413;1282;1003427;-34
2024/01/16 09:34:07;;;;;;;12.60;5.70;;;;;;;-128.00;-1.00;-1.00;100352;1282;1005305;-32
2024/01/16 09:36:35;;;;;;;14.90;7.00;;;;;;;-128.00;-1.00;-1.00;100315;1282;1003381;-35
2024/01/16 09:39:02;;;;;;;10.60;6.00;;;;;;;-128.00;-1.00;-1.00;100087;1283;1058422;-31
2024/01/16 09:41:28;;;;;;;12.90;4.70;;;;;;;-128.00;-1.00;-1.00;100246;1282;1004203;-34
2024/01/16 09:43:54;;;;;;;22.40;8.30;;;;;;;-128.00;-1.00;-1.00;100156;1286;1002745;-34
2024/01/16 09:46:20;;;;;;;18.50;9.20;;;;;;;-128.00;-1.00;-1.00;100284;1282;1003900;-33
2024/01/16 09:48:45;;;;;;;;;;;;;;;-128.00;-1.00;-1.00;100349;1282;1003048;-39
2024/01/16 09:51:14;;;;;;;9.80;5.50;;;;;;;-128.00;-1.00;-1.00;100268;1282;1003679;-34
2024/01/16 09:53:43;;;;;;;19.40;10.20;;;;;;;-128.00;-1.00;-1.00;100257;1282;1037717;-31
2024/01/16 09:56:12;;;;;;;11.60;6.20;;;;;;;-128.00;-1.00;-1.00;100280;1282;1045608;-34
2024/01/16 09:58:37;;;;;;;9.60;4.70;;;;;;;-128.00;-1.00;-1.00;100262;1282;1059694;-31
2024/01/16 10:01:03;;;;;;;6.40;3.70;;;;;;;-128.00;-1.00;-1.00;100196;1282;1003506;-30
2024/01/16 10:03:29;;;;;;;;;;;;;;;-128.00;-1.00;-1.00;100244;1282;1013547;-29
2024/01/16 10:05:54;;;;;;;6.30;3.00;;;;;;;-128.00;-1.00;-1.00;100253;1283;1003928;-30
2024/01/16 10:08:21;;;;;;;12.10;3.30;;;;;;;-128.00;-1.00;-1.00;100199;1283;1059228;-29
2024/01/16 10:10:47;;;;;;;8.10;3.20;;;;;;;-128.00;-1.00;-1.00;100250;1282;1003498;-29
2024/01/16 10:13:14;;;;;;;6.80;2.80;;;;;;;-128.00;-1.00;-1.00;100252;1282;1002528;-31
2024/01/16 10:15:39;;;;;;;5.60;2.70;;;;;;;-128.00;-1.00;-1.00;100088;1282;1003101;-31
2024/01/16 10:18:06;;;;;;;4.70;3.40;;;;;;;-128.00;-1.00;-1.00;100200;1288;1003690;-33
2024/01/16 10:20:32;;;;;;;5.50;3.40;;;;;;;-128.00;-1.00;-1.00;99585;1282;2063076;-32
2024/01/16 10:22:58;;;;;;;5.40;2.30;;;;;;;-128.00;-1.00;-1.00;100214;1282;1003992;-30
2024/01/16 10:25:24;;;;;;;7.40;2.60;;;;;;;-128.00;-1.00;-1.00;100209;1283;1003306;-30
2024/01/16 10:27:50;;;;;;;7.10;2.50;;;;;;;-128.00;-1.00;-1.00;100226;1282;1038508;-31
2024/01/16 10:36:23;;;;;;;15.60;6.80;;;;;;;;;;103322;1285;599286;-30
2024/01/16 10:38:54;;;;;;;24.00;12.20;;;;;;;;;;103490;1288;59162;-32
2024/01/16 10:41:25;;;;;;;22.90;8.30;;;;;;;;;;103423;1287;59107;-32
2024/01/16 10:44:03;;;;;;;9.10;4.70;;;;;;;;;;103328;1294;59236;-32
2024/01/16 10:46:28;;;;;;;17.10;6.70;;;;;;;;;;103353;1288;59157;-32
2024/01/16 10:49:01;;;;;;;27.20;8.80;;;;;;;;;;103238;1291;164772;-31
2024/01/16 10:51:27;;;;;;;27.60;10.00;;;;;;;;;;103627;1285;60602;-32
2024/01/16 10:53:55;;;;;;;48.80;10.90;;;;;;;;;;103536;1285;59833;-34
2024/01/16 10:56:21;;;;;;;58.10;17.30;;;;;;;;;;103659;1286;59647;-32
2024/01/16 10:58:47;;;;;;;58.10;17.90;;;;;;;;;;103682;1285;59611;-31
2024/01/16 11:01:14;;;;;;;14.60;5.50;;;;;;;;;;103770;1284;59829;-31
2024/01/16 11:03:40;;;;;;;43.90;13.10;;;;;;;;;;103770;1285;59708;-31
2024/01/16 11:06:07;;;;;;;30.00;9.30;;;;;;;;;;103780;1284;59833;-31
2024/01/16 11:08:35;;;;;;;37.00;11.10;;;;;;;;;;103736;1285;60402;-29
2024/01/16 11:11:01;;;;;;;35.00;10.50;;;;;;;;;;103785;1285;59636;-29
2024/01/16 11:13:26;;;;;;;22.10;6.80;;;;;;;;;;103678;1284;59758;-29
2024/01/16 11:15:52;;;;;;;13.90;3.70;;;;;;;;;;103808;1287;59784;-30
2024/01/16 11:18:17;;;;;;;11.10;4.50;;;;;;;;;;103570;1284;59938;-31
2024/01/16 11:20:43;;;;;;;8.80;4.40;;;;;;;;;;103836;1288;59762;-31
2024/01/16 11:23:09;;;;;;;6.00;2.40;;;;;;;;;;103808;1285;59841;-29
2024/01/16 11:25:35;;;;;;;11.00;4.30;;;;;;;;;;103800;1288;59695;-33
2024/01/16 11:28:07;;;;;;;11.90;3.80;;;;;;;;;;103822;1285;59747;-31
2024/01/16 11:30:33;;;;;;;7.10;2.90;;;;;;;;;;103785;1285;60039;-28
2024/01/16 11:32:59;;;;;;;5.30;2.10;;;;;;;;;;103796;1285;59801;-31
2024/01/16 11:35:36;;;;;;;5.90;2.40;;;;;;;;;;103737;1284;60049;-29
2024/01/16 11:38:08;;;;;;;5.60;2.30;;;;;;;;;;103817;1284;59590;-32
2024/01/16 11:40:34;;;;;;;5.20;2.30;;;;;;;;;;103668;1285;59560;-30
2024/01/16 11:43:20;;;;;;;7.10;3.10;;;;;;;;;;103670;1284;59800;-32
2024/01/16 11:45:48;;;;;;;9.50;3.70;;;;;;;;;;103831;1285;60213;-31
2024/01/16 11:48:14;;;;;;;6.10;3.60;;;;;;;;;;103793;1285;59715;-31
2024/01/16 11:50:39;;;;;;;;;;;;;;;;;;103783;1285;59762;-33
2024/01/16 11:53:05;;;;;;;12.00;5.40;;;;;;;;;;103765;1284;59828;-29
2024/01/16 11:55:31;;;;;;;10.70;4.50;;;;;;;;;;103825;1284;59727;-29
2024/01/16 11:58:09;;;;;;;9.00;3.90;;;;;;;;;;103782;1285;59724;-33
2024/01/16 12:00:35;;;;;;;11.20;3.80;;;;;;;;;;103808;1285;60168;-32
2024/01/16 12:03:01;;;;;;;10.50;4.70;;;;;;;;;;103807;1288;59836;-29
2024/01/16 12:05:27;;;;;;;8.00;3.50;;;;;;;;;;103743;1284;59729;-29
2024/01/16 12:07:53;;;;;;;7.40;4.40;;;;;;;;;;103798;1284;59889;-30
2024/01/16 12:10:20;;;;;;;11.00;4.70;;;;;;;;;;103812;1285;59676;-30
2024/01/16 12:12:46;;;;;;;13.80;5.10;;;;;;;;;;103805;1286;59855;-29
2024/01/16 12:15:16;;;;;;;9.80;5.10;;;;;;;;;;103859;1286;59774;-31
2024/01/16 12:17:54;;;;;;;9.00;4.60;;;;;;;;;;103855;1284;59752;-31
2024/01/16 12:20:20;;;;;;;9.80;4.40;;;;;;;;;;103781;1288;59609;-29
2024/01/16 12:22:45;;;;;;;11.10;4.50;;;;;;;;;;103804;1285;59765;-32
2024/01/16 12:25:12;;;;;;;7.60;4.00;;;;;;;;;;103756;1288;59778;-29
2024/01/16 12:27:38;;;;;;;10.50;3.90;;;;;;;;;;103527;1285;59675;-33